createdAt,value
2019-02-07T00:02:10.849Z,29.37
2019-02-07T00:05:06.072Z,32.97
2019-02-07T00:08:02.119Z,33.00
2019-02-07T00:10:58.878Z,41.77
2019-02-07T00:13:55.585Z,31.83
2019-02-07T00:16:51.867Z,29.90
2019-02-07T00:19:48.594Z,35.13
2019-02-07T00:22:45.042Z,53.63
2019-02-07T00:25:40.557Z,42.23
2019-02-07T00:28:37.250Z,34.92
2019-02-07T00:31:33.209Z,42.17
2019-02-07T00:34:29.699Z,37.77
2019-02-07T00:37:27.632Z,35.73
2019-02-07T00:40:25.035Z,35.40
2019-02-07T00:43:22.597Z,37.13
2019-02-07T00:46:18.130Z,72.60
2019-02-07T00:49:14.609Z,43.60
2019-02-07T00:52:11.048Z,60.40
2019-02-07T00:55:08.565Z,36.10
2019-02-07T00:58:04.479Z,35.43
2019-02-07T01:01:01.787Z,47.67
2019-02-07T01:03:58.487Z,40.90
2019-02-07T01:06:54.259Z,44.77
2019-02-07T01:09:50.737Z,42.08
2019-02-07T01:12:47.385Z,56.07
2019-02-07T01:15:44.403Z,36.90
2019-02-07T01:18:40.174Z,40.60
2019-02-07T01:21:36.639Z,36.10
2019-02-07T01:24:33.627Z,41.17
2019-02-07T01:27:29.116Z,34.47
2019-02-07T01:30:33.490Z,40.23
2019-02-07T01:33:29.032Z,36.27
2019-02-07T01:36:25.872Z,36.37
2019-02-07T01:39:22.889Z,42.30
2019-02-07T01:42:18.635Z,36.83
2019-02-07T01:45:13.633Z,42.47
2019-02-07T01:48:10.328Z,44.00
2019-02-07T01:51:06.748Z,38.90
2019-02-07T01:54:01.699Z,38.70
2019-02-07T01:56:59.459Z,44.00
2019-02-07T01:59:55.173Z,57.63
2019-02-07T02:02:52.688Z,48.73
2019-02-07T02:05:49.433Z,36.10
2019-02-07T02:08:46.021Z,33.30
2019-02-07T02:11:40.632Z,39.47
2019-02-07T02:14:37.383Z,47.37
2019-02-07T02:17:31.875Z,49.00
2019-02-07T02:20:28.423Z,38.37
2019-02-07T02:23:25.134Z,57.15
2019-02-07T02:26:21.856Z,38.93
2019-02-07T02:29:18.190Z,42.37
2019-02-07T02:32:14.886Z,50.57
2019-02-07T02:35:11.391Z,57.10
2019-02-07T02:38:06.111Z,44.73
2019-02-07T02:41:02.889Z,45.40
2019-02-07T02:43:59.390Z,38.37
2019-02-07T02:46:56.121Z,44.57
2019-02-07T02:49:52.599Z,45.27
2019-02-07T02:52:49.083Z,46.50
2019-02-07T02:55:48.876Z,42.23
2019-02-07T02:58:44.486Z,34.57
2019-02-07T03:02:02.114Z,32.17
2019-02-07T03:05:14.253Z,68.07
2019-02-07T03:08:22.094Z,38.60
2019-02-07T03:11:39.388Z,39.27
2019-02-07T03:14:53.119Z,31.23
2019-02-07T03:18:14.352Z,31.33
2019-02-07T03:21:31.763Z,27.43
2019-02-07T03:24:54.677Z,34.67
2019-02-07T03:28:05.986Z,33.43
2019-02-07T03:31:19.337Z,39.97
2019-02-07T03:34:31.053Z,32.60
2019-02-07T03:37:38.006Z,34.90
2019-02-07T03:40:44.890Z,41.13
2019-02-07T03:44:02.485Z,33.17
2019-02-07T03:47:15.918Z,36.57
2019-02-07T03:50:30.015Z,41.50
2019-02-07T03:53:41.663Z,34.10
2019-02-07T03:56:55.811Z,32.50
2019-02-07T04:00:04.602Z,32.40
2019-02-07T04:03:21.598Z,34.87
2019-02-07T04:06:34.744Z,32.53
2019-02-07T04:09:59.607Z,47.00
2019-02-07T04:13:09.980Z,33.37
2019-02-07T04:16:19.786Z,36.70
2019-02-07T04:19:28.947Z,47.53
2019-02-07T04:22:54.148Z,41.70
2019-02-07T04:26:13.920Z,33.63
2019-02-07T04:29:25.805Z,54.33
2019-02-07T04:32:36.520Z,32.57
2019-02-07T04:35:48.340Z,32.87
2019-02-07T04:38:57.082Z,30.93
2019-02-07T04:42:10.156Z,28.47
2019-02-07T04:45:26.127Z,27.98
2019-02-07T04:48:47.814Z,26.40
2019-02-07T04:51:57.136Z,25.87
2019-02-07T04:55:21.614Z,24.93
2019-02-07T04:58:37.680Z,33.13
2019-02-07T05:01:58.874Z,29.30
2019-02-07T05:05:09.347Z,31.57
2019-02-07T05:08:16.325Z,27.70
2019-02-07T05:11:26.784Z,32.13
2019-02-07T05:14:34.399Z,26.73
2019-02-07T05:17:43.290Z,29.73
2019-02-07T05:21:01.481Z,30.10
2019-02-07T05:24:20.865Z,28.50
2019-02-07T05:27:25.629Z,29.17
2019-02-07T05:30:40.251Z,27.57
2019-02-07T05:34:04.163Z,27.37
2019-02-07T05:37:21.577Z,33.27
2019-02-07T05:40:40.287Z,31.40
2019-02-07T05:43:49.137Z,31.07
2019-02-07T05:46:56.671Z,33.50
2019-02-07T05:50:05.343Z,34.20
2019-02-07T05:53:14.265Z,30.12
2019-02-07T05:56:34.760Z,37.60
2019-02-07T05:59:58.137Z,30.37
2019-02-07T06:03:24.617Z,35.87
2019-02-07T06:06:37.752Z,31.30
2019-02-07T06:09:48.990Z,36.50
2019-02-07T06:13:03.042Z,33.67
2019-02-07T06:16:12.983Z,28.40
2019-02-07T06:19:26.631Z,35.23
2019-02-07T06:22:36.972Z,34.33
2019-02-07T06:25:56.008Z,34.83
2019-02-07T06:29:09.520Z,29.67
2019-02-07T06:32:16.072Z,31.97
2019-02-07T06:35:38.342Z,35.77
2019-02-07T06:38:45.610Z,41.17
2019-02-07T06:42:04.516Z,33.02
2019-02-07T06:45:19.737Z,53.87
2019-02-07T06:48:35.181Z,33.60
2019-02-07T06:51:49.487Z,29.33
2019-02-07T06:55:14.259Z,33.20
2019-02-07T06:58:34.271Z,35.37
2019-02-07T07:01:54.803Z,35.13
2019-02-07T07:05:04.967Z,42.20
2019-02-07T07:08:18.837Z,36.50
2019-02-07T07:11:39.079Z,34.27
2019-02-07T07:14:44.893Z,40.17
2019-02-07T07:17:56.525Z,35.07
2019-02-07T07:21:19.128Z,37.07
2019-02-07T07:24:27.809Z,33.37
2019-02-07T07:27:42.057Z,35.17
2019-02-07T07:31:04.157Z,40.43
2019-02-07T07:34:20.655Z,40.70
2019-02-07T07:37:33.073Z,36.03
2019-02-07T07:40:42.158Z,37.50
2019-02-07T07:43:52.741Z,41.18
2019-02-07T07:47:05.796Z,43.00
2019-02-07T07:50:21.793Z,38.90
2019-02-07T07:53:30.919Z,36.77
2019-02-07T07:56:39.786Z,36.10
2019-02-07T07:59:53.815Z,38.73
2019-02-07T08:03:02.244Z,38.37
2019-02-07T08:06:27.501Z,39.57
2019-02-07T08:09:44.952Z,40.87
2019-02-07T08:12:54.351Z,32.73
2019-02-07T08:16:02.084Z,37.70
2019-02-07T08:19:12.435Z,43.80
2019-02-07T08:22:16.331Z,38.05
2019-02-07T08:25:30.198Z,35.63
2019-02-07T08:28:38.089Z,41.10
2019-02-07T08:31:55.001Z,36.40
2019-02-07T08:35:03.659Z,34.63
2019-02-07T08:38:13.432Z,41.87
2019-02-07T08:41:44.391Z,38.92
2019-02-07T08:44:55.153Z,39.53
2019-02-07T08:48:04.002Z,34.50
2019-02-07T08:51:12.513Z,39.07
2019-02-07T08:54:20.259Z,42.80
2019-02-07T08:57:32.556Z,39.57
2019-02-07T09:00:43.110Z,46.37
2019-02-07T09:03:59.075Z,39.90
2019-02-07T09:07:14.690Z,30.88
2019-02-07T09:10:23.696Z,37.23
2019-02-07T09:13:40.013Z,37.90
2019-02-07T09:16:54.822Z,36.77
2019-02-07T09:20:01.688Z,34.70
2019-02-07T09:23:15.494Z,35.73
2019-02-07T09:26:38.621Z,40.10
2019-02-07T09:29:46.615Z,39.37
2019-02-07T09:33:00.336Z,37.83
2019-02-07T09:36:05.822Z,33.90
2019-02-07T09:39:26.721Z,31.70
2019-02-07T09:42:49.630Z,32.70
2019-02-07T09:46:05.168Z,32.43
2019-02-07T09:49:13.887Z,31.60
2019-02-07T09:52:22.250Z,31.27
2019-02-07T09:55:30.115Z,30.40
2019-02-07T09:58:54.848Z,32.50
2019-02-07T10:02:11.045Z,35.33
2019-02-07T10:05:36.640Z,28.33
2019-02-07T10:08:46.921Z,35.90
2019-02-07T10:11:55.487Z,40.70
2019-02-07T10:15:17.997Z,34.27
2019-02-07T10:18:33.023Z,41.63
2019-02-07T10:21:35.974Z,38.53
2019-02-07T10:24:57.572Z,34.30
2019-02-07T10:28:04.999Z,31.73
2019-02-07T10:31:15.423Z,33.97
2019-02-07T10:34:29.446Z,37.40
2019-02-07T10:37:37.463Z,34.37
2019-02-07T10:40:48.956Z,50.20
2019-02-07T10:44:15.634Z,47.63
2019-02-07T10:47:22.380Z,34.70
2019-02-07T10:50:37.276Z,37.83
2019-02-07T10:53:42.819Z,39.17
2019-02-07T10:56:51.001Z,34.20
2019-02-07T11:00:13.589Z,36.50
2019-02-07T11:03:23.954Z,40.58
2019-02-07T11:06:34.407Z,40.23
2019-02-07T11:09:47.533Z,44.17
2019-02-07T11:13:00.646Z,44.13
2019-02-07T11:16:11.368Z,36.03
2019-02-07T11:19:21.370Z,36.43
2019-02-07T11:22:42.658Z,33.97
2019-02-07T11:25:51.095Z,31.83
2019-02-07T11:29:00.852Z,36.20
2019-02-07T11:32:11.335Z,34.03
2019-02-07T11:35:34.474Z,39.63
2019-02-07T11:38:45.993Z,33.55
2019-02-07T11:41:53.799Z,32.93
2019-02-07T11:44:56.573Z,30.57
2019-02-07T11:48:05.028Z,33.63
2019-02-07T11:51:14.909Z,37.07
2019-02-07T11:54:30.641Z,38.63
2019-02-07T11:57:39.159Z,29.90
2019-02-07T12:01:03.823Z,30.80
2019-02-07T12:04:11.082Z,32.87
2019-02-07T12:07:25.316Z,32.47
2019-02-07T12:10:35.263Z,35.33
2019-02-07T12:13:46.993Z,32.07
2019-02-07T12:17:05.996Z,28.73
2019-02-07T12:20:26.562Z,36.97
2019-02-07T12:23:35.110Z,32.60
2019-02-07T12:26:42.980Z,37.47
2019-02-07T12:29:56.754Z,32.43
2019-02-07T12:33:10.530Z,35.97
2019-02-07T12:36:15.565Z,33.93
2019-02-07T12:39:30.421Z,34.47
2019-02-07T12:42:47.263Z,39.60
2019-02-07T12:45:57.277Z,41.80
2019-02-07T12:49:07.136Z,32.57
2019-02-07T12:52:21.269Z,35.63
2019-02-07T12:55:35.781Z,36.07
2019-02-07T12:58:43.274Z,39.23
2019-02-07T13:01:58.455Z,32.30
2019-02-07T13:05:14.514Z,34.13
2019-02-07T13:08:38.382Z,45.45
2019-02-07T13:11:48.497Z,38.80
2019-02-07T13:14:58.169Z,42.10
2019-02-07T13:18:21.997Z,41.17
2019-02-07T13:21:42.668Z,53.75
2019-02-07T13:24:49.831Z,56.70
2019-02-07T13:28:06.651Z,37.27
2019-02-07T13:31:22.498Z,41.90
2019-02-07T13:34:41.079Z,36.67
2019-02-07T13:37:58.386Z,29.93
2019-02-07T13:41:07.301Z,32.67
2019-02-07T13:44:15.231Z,36.33
2019-02-07T13:47:25.828Z,34.23
2019-02-07T13:50:38.595Z,33.10
2019-02-07T13:53:48.159Z,31.90
2019-02-07T13:57:01.278Z,36.80
2019-02-07T14:00:14.966Z,31.03
2019-02-07T14:03:35.718Z,36.08
2019-02-07T14:06:45.312Z,36.75
2019-02-07T14:09:54.408Z,40.73
2019-02-07T14:13:19.080Z,33.43
2019-02-07T14:16:26.828Z,34.77
2019-02-07T14:19:48.374Z,32.97
2019-02-07T14:22:57.028Z,28.97
2019-02-07T14:26:06.019Z,33.78
2019-02-07T14:29:18.886Z,31.27
2019-02-07T14:32:35.682Z,31.90
2019-02-07T14:35:45.947Z,33.30
2019-02-07T14:39:08.494Z,30.00
2019-02-07T14:42:24.270Z,30.20
2019-02-07T14:45:51.359Z,30.20
2019-02-07T14:48:46.881Z,28.63
2019-02-07T14:51:42.472Z,31.67
2019-02-07T14:54:37.958Z,32.13
2019-02-07T14:57:34.589Z,34.40
2019-02-07T15:00:34.199Z,32.87
2019-02-07T15:03:30.925Z,31.00
2019-02-07T15:06:27.467Z,36.23
2019-02-07T15:09:30.952Z,37.30
2019-02-07T15:12:29.687Z,31.80
2019-02-07T15:15:24.986Z,35.68
2019-02-07T15:18:21.936Z,38.13
2019-02-07T15:21:16.907Z,40.70
2019-02-07T15:24:13.806Z,34.57
2019-02-07T15:27:09.829Z,30.80
2019-02-07T15:30:05.541Z,44.63
2019-02-07T15:33:02.154Z,37.77
2019-02-07T15:36:00.055Z,31.67
2019-02-07T15:38:56.792Z,35.03
2019-02-07T15:41:52.513Z,35.37
2019-02-07T15:44:49.084Z,36.67
2019-02-07T15:47:45.550Z,33.53
2019-02-07T15:50:45.921Z,31.80
2019-02-07T15:53:43.946Z,33.45
2019-02-07T15:56:38.959Z,33.67
2019-02-07T15:59:46.276Z,40.43
2019-02-07T16:02:54.290Z,33.50
2019-02-07T16:05:49.850Z,38.17
2019-02-07T16:08:46.681Z,38.47
2019-02-07T16:11:47.185Z,42.53
2019-02-07T16:14:44.505Z,39.70
2019-02-07T16:17:39.216Z,39.47
2019-02-07T16:20:48.457Z,46.03
2019-02-07T16:23:35.405Z,41.60
2019-02-07T16:26:31.140Z,42.93
2019-02-07T16:29:27.474Z,41.57
2019-02-07T16:32:22.912Z,41.77
2019-02-07T16:35:20.190Z,55.43
2019-02-07T16:38:15.912Z,42.57
2019-02-07T16:41:13.718Z,46.18
2019-02-07T16:44:09.930Z,40.83
2019-02-07T16:47:06.626Z,44.47
2019-02-07T16:50:03.833Z,42.97
2019-02-07T16:53:01.514Z,47.77
2019-02-07T16:56:02.230Z,40.43
2019-02-07T16:59:08.050Z,61.53
2019-02-07T17:02:04.817Z,48.83
2019-02-07T17:05:01.663Z,58.13
2019-02-07T17:07:58.220Z,47.90
2019-02-07T17:10:54.980Z,50.13
2019-02-07T17:13:50.740Z,46.65
2019-02-07T17:16:47.860Z,48.13
2019-02-07T17:19:43.758Z,50.93
2019-02-07T17:22:40.533Z,41.90
2019-02-07T17:25:37.023Z,48.60
2019-02-07T17:28:33.707Z,50.93
2019-02-07T17:31:29.266Z,47.37
2019-02-07T17:34:26.027Z,50.13
2019-02-07T17:37:22.750Z,50.50
2019-02-07T17:40:18.671Z,52.17
2019-02-07T17:43:19.747Z,48.53
2019-02-07T17:46:15.003Z,54.57
2019-02-07T17:49:10.954Z,54.30
2019-02-07T17:52:07.534Z,59.73
2019-02-07T17:55:05.329Z,56.87
2019-02-07T17:58:02.221Z,51.50
2019-02-07T18:01:10.125Z,58.33
2019-02-07T18:04:06.878Z,55.53
2019-02-07T18:07:02.685Z,61.53
2019-02-07T18:10:00.462Z,56.37
2019-02-07T18:12:57.026Z,59.23
2019-02-07T18:15:57.283Z,56.63
2019-02-07T18:18:52.234Z,59.17
2019-02-07T18:21:47.840Z,57.27
2019-02-07T18:24:44.461Z,54.63
2019-02-07T18:27:41.972Z,59.63
2019-02-07T18:30:37.841Z,61.60
2019-02-07T18:33:35.372Z,55.37
2019-02-07T18:36:31.939Z,57.80
2019-02-07T18:39:30.805Z,59.33
2019-02-07T18:42:25.931Z,66.27
2019-02-07T18:45:22.658Z,64.23
2019-02-07T18:48:18.452Z,66.83
2019-02-07T18:51:14.450Z,66.33
2019-02-07T18:54:10.347Z,67.30
2019-02-07T18:57:06.770Z,69.57
2019-02-07T19:00:04.492Z,67.93
2019-02-07T19:03:00.230Z,62.83
2019-02-07T19:05:58.985Z,61.30
2019-02-07T19:08:54.488Z,63.43
2019-02-07T19:11:52.021Z,66.20
2019-02-07T19:14:47.946Z,67.95
2019-02-07T19:17:44.818Z,74.35
2019-02-07T19:20:41.318Z,67.33
2019-02-07T19:23:43.132Z,57.80
2019-02-07T19:26:40.693Z,59.90
2019-02-07T19:29:36.188Z,55.60
2019-02-07T19:32:33.143Z,47.73
2019-02-07T19:35:29.312Z,54.17
2019-02-07T19:38:26.112Z,60.98
2019-02-07T19:41:22.959Z,76.27
2019-02-07T19:44:18.567Z,60.93
2019-02-07T19:47:15.036Z,54.40
2019-02-07T19:50:11.582Z,56.10
2019-02-07T19:53:09.659Z,56.10
2019-02-07T19:56:05.081Z,52.58
2019-02-07T19:59:01.351Z,53.10
2019-02-07T20:01:58.226Z,59.90
2019-02-07T20:04:54.135Z,55.23
2019-02-07T20:07:51.807Z,59.73
2019-02-07T20:10:47.377Z,53.20
2019-02-07T20:13:44.260Z,59.60
2019-02-07T20:16:40.581Z,65.57
2019-02-07T20:19:36.456Z,69.37
2019-02-07T20:22:33.077Z,67.60
2019-02-07T20:25:28.737Z,65.00
2019-02-07T20:28:25.577Z,66.07
2019-02-07T20:31:21.138Z,73.70
2019-02-07T20:34:17.679Z,80.70
2019-02-07T20:37:13.361Z,73.00
2019-02-07T20:40:10.189Z,76.40
2019-02-07T20:43:05.787Z,75.43
2019-02-07T20:46:02.616Z,73.60
2019-02-07T20:48:59.310Z,71.70
2019-02-07T20:51:55.109Z,71.97
2019-02-07T20:54:53.651Z,74.17
2019-02-07T20:57:51.211Z,70.47
2019-02-07T21:00:50.416Z,68.53
2019-02-07T21:03:46.036Z,66.47
2019-02-07T21:06:42.214Z,68.07
2019-02-07T21:09:39.104Z,62.50
2019-02-07T21:12:35.925Z,56.67
2019-02-07T21:15:33.796Z,72.73
2019-02-07T21:18:30.182Z,58.53
2019-02-07T21:21:26.994Z,68.37
2019-02-07T21:24:22.662Z,69.20
2019-02-07T21:27:20.168Z,64.83
2019-02-07T21:30:16.647Z,69.58
2019-02-07T21:33:11.654Z,74.73
2019-02-07T21:36:08.420Z,76.63
2019-02-07T21:39:04.036Z,80.93
2019-02-07T21:42:01.662Z,70.87
2019-02-07T21:44:57.427Z,61.43
2019-02-07T21:47:53.609Z,63.13
2019-02-07T21:50:49.111Z,57.30
2019-02-07T21:53:45.665Z,44.18
2019-02-07T21:56:43.245Z,45.40
2019-02-07T21:59:39.903Z,43.28
2019-02-07T22:02:36.649Z,39.30
2019-02-07T22:05:32.409Z,40.40
2019-02-07T22:08:29.921Z,38.58
2019-02-07T22:11:26.503Z,42.27
2019-02-07T22:14:24.130Z,47.43
2019-02-07T22:17:20.796Z,51.33
2019-02-07T22:20:16.360Z,50.03
2019-02-07T22:23:12.527Z,55.87
2019-02-07T22:26:08.025Z,54.42
2019-02-07T22:29:05.873Z,48.80
2019-02-07T22:32:01.529Z,47.97
2019-02-07T22:34:57.922Z,50.10
2019-02-07T22:37:53.242Z,45.60
2019-02-07T22:40:49.752Z,45.93
2019-02-07T22:43:46.010Z,49.47
2019-02-07T22:46:47.074Z,45.30
2019-02-07T22:49:44.290Z,48.97
2019-02-07T22:52:39.778Z,62.23
2019-02-07T22:55:36.538Z,45.07
2019-02-07T22:58:34.100Z,34.50
2019-02-07T23:02:02.506Z,32.73
2019-02-07T23:04:59.111Z,32.50
2019-02-07T23:07:54.490Z,35.70
2019-02-07T23:10:52.000Z,39.57
2019-02-07T23:13:47.362Z,23.30
2019-02-07T23:16:43.395Z,26.40
2019-02-07T23:19:39.922Z,28.30
2019-02-07T23:22:37.169Z,24.30
2019-02-07T23:25:32.892Z,27.50
2019-02-07T23:28:29.562Z,26.73
2019-02-07T23:31:26.121Z,27.17
2019-02-07T23:34:26.426Z,24.77
2019-02-07T23:37:27.010Z,27.60
2019-02-07T23:40:22.389Z,27.20
2019-02-07T23:43:19.854Z,22.40
2019-02-07T23:46:15.410Z,24.20
2019-02-07T23:49:12.956Z,30.07
2019-02-07T23:52:08.392Z,28.25
2019-02-07T23:55:05.082Z,25.20
2019-02-07T23:58:01.604Z,20.10
